Weather at Holiday Airport [CLOSED]

Public forecast

Using degrees Fahrenheit for public forecast. Weather courtesy of forecast.io.

Closest aviation weather report (METAR) to Holiday Airport

Report is more than 6 hours old.

Closest report is Corvallis Municipal Airport, 6.7 nm (12.4 km) SW. Retrieved 2021/07/26 23:56 UTC (1 day ago):

KCVO 272356Z AUTO VRB03KT 10SM CLR 31/12 A3002 RMK AO2 SLP164 T03060122 10306 20233 58009

Closest aviation forecast (TAF) to Holiday Airport

Closest forecast is Salem Municipal Airport/McNary Field, 21.6 nm (40.0 km) NNE. Retrieved 2021-07-28 00:22 UTC (26 minutes ago):

TAF KSLE 272320Z 2800/2824 35007KT P6SM FEW100 BKN250 FM280400 VRB03KT P6SM SCT250